sensor_id;sensor_type;location;lat;lon;timestamp;P1;durP1;ratioP1;P2;durP2;ratioP2
25435;SDS011;13363;52.772;-3.890;2023-05-10T00:01:29;7.43;;;3.70;;
25435;SDS011;13363;52.772;-3.890;2023-05-10T00:03:55;7.43;;;3.70;;
25435;SDS011;13363;52.772;-3.890;2023-05-10T00:06:21;7.27;;;3.43;;
25435;SDS011;13363;52.772;-3.890;2023-05-10T00:08:47;5.67;;;3.30;;
25435;SDS011;13363;52.772;-3.890;2023-05-10T00:11:12;4.90;;;3.50;;
25435;SDS011;13363;52.772;-3.890;2023-05-10T00:13:39;9.03;;;3.97;;
25435;SDS011;13363;52.772;-3.890;2023-05-10T00:16:05;4.23;;;3.70;;
25435;SDS011;13363;52.772;-3.890;2023-05-10T00:18:31;4.43;;;3.80;;
25435;SDS011;13363;52.772;-3.890;2023-05-10T00:20:57;5.93;;;3.00;;
25435;SDS011;13363;52.772;-3.890;2023-05-10T00:23:23;8.73;;;3.90;;
25435;SDS011;13363;52.772;-3.890;2023-05-10T00:25:49;6.10;;;3.33;;
25435;SDS011;13363;52.772;-3.890;2023-05-10T00:28:14;8.03;;;3.47;;
25435;SDS011;13363;52.772;-3.890;2023-05-10T00:30:40;8.87;;;3.30;;
25435;SDS011;13363;52.772;-3.890;2023-05-10T00:33:06;7.33;;;3.97;;
25435;SDS011;13363;52.772;-3.890;2023-05-10T00:35:32;8.10;;;3.90;;
25435;SDS011;13363;52.772;-3.890;2023-05-10T00:37:58;10.00;;;3.50;;
25435;SDS011;13363;52.772;-3.890;2023-05-10T00:40:24;6.50;;;3.70;;
25435;SDS011;13363;52.772;-3.890;2023-05-10T00:42:50;6.10;;;3.30;;
25435;SDS011;13363;52.772;-3.890;2023-05-10T00:45:16;4.63;;;4.20;;
25435;SDS011;13363;52.772;-3.890;2023-05-10T00:47:42;6.13;;;3.93;;
25435;SDS011;13363;52.772;-3.890;2023-05-10T00:50:08;4.23;;;3.43;;
25435;SDS011;13363;52.772;-3.890;2023-05-10T00:52:34;4.67;;;3.80;;
25435;SDS011;13363;52.772;-3.890;2023-05-10T00:55:00;7.10;;;3.70;;
25435;SDS011;13363;52.772;-3.890;2023-05-10T00:57:28;5.63;;;3.43;;
25435;SDS011;13363;52.772;-3.890;2023-05-10T00:59:54;7.03;;;3.70;;
25435;SDS011;13363;52.772;-3.890;2023-05-10T01:02:20;5.07;;;3.80;;
25435;SDS011;13363;52.772;-3.890;2023-05-10T01:04:46;6.23;;;3.90;;
25435;SDS011;13363;52.772;-3.890;2023-05-10T01:07:12;8.20;;;3.90;;
25435;SDS011;13363;52.772;-3.890;2023-05-10T01:09:38;4.63;;;3.27;;
25435;SDS011;13363;52.772;-3.890;2023-05-10T01:12:04;5.23;;;3.60;;
25435;SDS011;13363;52.772;-3.890;2023-05-10T01:14:31;5.43;;;3.40;;
25435;SDS011;13363;52.772;-3.890;2023-05-10T01:16:58;4.07;;;2.80;;
25435;SDS011;13363;52.772;-3.890;2023-05-10T01:19:26;10.37;;;4.37;;
25435;SDS011;13363;52.772;-3.890;2023-05-10T01:24:40;5.87;;;3.70;;
25435;SDS011;13363;52.772;-3.890;2023-05-10T01:43:40;8.43;;;3.57;;
25435;SDS011;13363;52.772;-3.890;2023-05-10T01:46:17;5.33;;;2.87;;
25435;SDS011;13363;52.772;-3.890;2023-05-10T01:48:52;4.43;;;2.60;;
25435;SDS011;13363;52.772;-3.890;2023-05-10T01:51:23;4.13;;;2.90;;
25435;SDS011;13363;52.772;-3.890;2023-05-10T01:53:51;5.07;;;3.50;;
25435;SDS011;13363;52.772;-3.890;2023-05-10T01:56:24;4.07;;;3.10;;
25435;SDS011;13363;52.772;-3.890;2023-05-10T01:58:53;3.60;;;2.90;;
25435;SDS011;13363;52.772;-3.890;2023-05-10T02:01:20;6.50;;;3.10;;
25435;SDS011;13363;52.772;-3.890;2023-05-10T02:03:46;4.40;;;3.10;;
25435;SDS011;13363;52.772;-3.890;2023-05-10T02:06:15;2.83;;;2.60;;
25435;SDS011;13363;52.772;-3.890;2023-05-10T02:08:43;6.20;;;3.00;;
25435;SDS011;13363;52.772;-3.890;2023-05-10T02:11:11;5.03;;;3.73;;
25435;SDS011;13363;52.772;-3.890;2023-05-10T02:13:38;4.93;;;3.90;;
25435;SDS011;13363;52.772;-3.890;2023-05-10T02:16:05;8.50;;;4.43;;
25435;SDS011;13363;52.772;-3.890;2023-05-10T02:18:32;9.17;;;4.17;;
25435;SDS011;13363;52.772;-3.890;2023-05-10T02:21:01;9.70;;;4.67;;
25435;SDS011;13363;52.772;-3.890;2023-05-10T02:23:28;7.97;;;4.20;;
25435;SDS011;13363;52.772;-3.890;2023-05-10T02:25:56;7.10;;;3.70;;
25435;SDS011;13363;52.772;-3.890;2023-05-10T02:28:23;5.30;;;3.00;;
25435;SDS011;13363;52.772;-3.890;2023-05-10T02:30:51;5.30;;;3.30;;
25435;SDS011;13363;52.772;-3.890;2023-05-10T02:33:18;4.03;;;2.93;;
25435;SDS011;13363;52.772;-3.890;2023-05-10T02:35:46;5.03;;;2.73;;
25435;SDS011;13363;52.772;-3.890;2023-05-10T02:38:12;4.10;;;2.83;;
25435;SDS011;13363;52.772;-3.890;2023-05-10T02:40:40;5.60;;;3.43;;
25435;SDS011;13363;52.772;-3.890;2023-05-10T02:43:08;4.23;;;3.30;;
25435;SDS011;13363;52.772;-3.890;2023-05-10T02:45:37;6.43;;;2.87;;
25435;SDS011;13363;52.772;-3.890;2023-05-10T02:48:04;4.07;;;2.40;;
25435;SDS011;13363;52.772;-3.890;2023-05-10T02:50:32;6.20;;;3.30;;
25435;SDS011;13363;52.772;-3.890;2023-05-10T02:53:04;4.93;;;3.43;;
25435;SDS011;13363;52.772;-3.890;2023-05-10T02:55:36;8.53;;;3.17;;
25435;SDS011;13363;52.772;-3.890;2023-05-10T02:58:05;3.70;;;3.30;;
25435;SDS011;13363;52.772;-3.890;2023-05-10T03:00:31;9.10;;;3.27;;
25435;SDS011;13363;52.772;-3.890;2023-05-10T03:02:57;3.20;;;3.00;;
25435;SDS011;13363;52.772;-3.890;2023-05-10T03:05:23;3.07;;;2.40;;
25435;SDS011;13363;52.772;-3.890;2023-05-10T03:07:49;2.53;;;2.33;;
25435;SDS011;13363;52.772;-3.890;2023-05-10T03:10:16;6.30;;;3.53;;
25435;SDS011;13363;52.772;-3.890;2023-05-10T03:18:24;3.30;;;2.77;;
25435;SDS011;13363;52.772;-3.890;2023-05-10T03:21:01;5.63;;;3.13;;
25435;SDS011;13363;52.772;-3.890;2023-05-10T03:23:33;5.80;;;3.80;;
25435;SDS011;13363;52.772;-3.890;2023-05-10T03:26:01;6.37;;;3.80;;
25435;SDS011;13363;52.772;-3.890;2023-05-10T03:28:29;6.13;;;3.07;;
25435;SDS011;13363;52.772;-3.890;2023-05-10T03:30:58;3.60;;;3.30;;
25435;SDS011;13363;52.772;-3.890;2023-05-10T03:33:25;7.47;;;3.53;;
25435;SDS011;13363;52.772;-3.890;2023-05-10T03:35:51;3.87;;;3.13;;
25435;SDS011;13363;52.772;-3.890;2023-05-10T03:38:16;10.57;;;3.90;;
25435;SDS011;13363;52.772;-3.890;2023-05-10T03:40:42;6.03;;;3.30;;
25435;SDS011;13363;52.772;-3.890;2023-05-10T03:43:08;4.43;;;3.33;;
25435;SDS011;13363;52.772;-3.890;2023-05-10T03:45:34;5.13;;;3.20;;
25435;SDS011;13363;52.772;-3.890;2023-05-10T03:48:00;4.13;;;3.00;;
25435;SDS011;13363;52.772;-3.890;2023-05-10T03:50:26;5.63;;;3.70;;
25435;SDS011;13363;52.772;-3.890;2023-05-10T03:52:52;5.67;;;3.33;;
25435;SDS011;13363;52.772;-3.890;2023-05-10T03:55:18;5.17;;;3.30;;
25435;SDS011;13363;52.772;-3.890;2023-05-10T03:57:43;3.97;;;3.30;;
25435;SDS011;13363;52.772;-3.890;2023-05-10T04:00:09;5.27;;;3.70;;
25435;SDS011;13363;52.772;-3.890;2023-05-10T04:02:36;4.27;;;3.87;;
25435;SDS011;13363;52.772;-3.890;2023-05-10T04:05:02;4.63;;;3.57;;
25435;SDS011;13363;52.772;-3.890;2023-05-10T04:07:28;4.27;;;3.30;;
25435;SDS011;13363;52.772;-3.890;2023-05-10T04:09:54;5.87;;;3.83;;
25435;SDS011;13363;52.772;-3.890;2023-05-10T04:12:20;5.17;;;3.60;;
25435;SDS011;13363;52.772;-3.890;2023-05-10T04:14:45;8.57;;;3.93;;
25435;SDS011;13363;52.772;-3.890;2023-05-10T04:17:11;5.57;;;3.57;;
25435;SDS011;13363;52.772;-3.890;2023-05-10T04:19:37;3.93;;;3.53;;
25435;SDS011;13363;52.772;-3.890;2023-05-10T04:22:03;10.33;;;4.43;;
25435;SDS011;13363;52.772;-3.890;2023-05-10T04:24:29;3.67;;;3.23;;
25435;SDS011;13363;52.772;-3.890;2023-05-10T04:26:55;11.00;;;4.20;;
25435;SDS011;13363;52.772;-3.890;2023-05-10T04:29:20;4.23;;;3.63;;
25435;SDS011;13363;52.772;-3.890;2023-05-10T04:31:46;4.73;;;3.70;;
25435;SDS011;13363;52.772;-3.890;2023-05-10T04:34:13;3.80;;;3.50;;
25435;SDS011;13363;52.772;-3.890;2023-05-10T04:36:39;5.57;;;2.90;;
25435;SDS011;13363;52.772;-3.890;2023-05-10T04:39:05;15.23;;;4.00;;
25435;SDS011;13363;52.772;-3.890;2023-05-10T04:41:31;5.13;;;3.70;;
25435;SDS011;13363;52.772;-3.890;2023-05-10T04:43:57;3.43;;;3.13;;
25435;SDS011;13363;52.772;-3.890;2023-05-10T04:46:22;4.50;;;3.57;;
25435;SDS011;13363;52.772;-3.890;2023-05-10T04:48:48;3.30;;;3.03;;
25435;SDS011;13363;52.772;-3.890;2023-05-10T04:51:14;4.43;;;3.53;;
25435;SDS011;13363;52.772;-3.890;2023-05-10T04:53:40;4.90;;;3.13;;
25435;SDS011;13363;52.772;-3.890;2023-05-10T04:56:06;3.90;;;3.43;;
25435;SDS011;13363;52.772;-3.890;2023-05-10T04:58:32;4.30;;;3.07;;
25435;SDS011;13363;52.772;-3.890;2023-05-10T05:01:04;5.57;;;3.50;;
25435;SDS011;13363;52.772;-3.890;2023-05-10T05:03:33;6.03;;;3.40;;
25435;SDS011;13363;52.772;-3.890;2023-05-10T05:05:59;5.67;;;3.30;;
25435;SDS011;13363;52.772;-3.890;2023-05-10T05:08:25;3.97;;;3.43;;
25435;SDS011;13363;52.772;-3.890;2023-05-10T05:10:52;8.60;;;3.60;;
25435;SDS011;13363;52.772;-3.890;2023-05-10T05:13:17;6.57;;;4.00;;
25435;SDS011;13363;52.772;-3.890;2023-05-10T05:15:43;5.13;;;3.17;;
25435;SDS011;13363;52.772;-3.890;2023-05-10T05:18:09;5.90;;;3.23;;
25435;SDS011;13363;52.772;-3.890;2023-05-10T05:20:35;7.67;;;3.20;;
25435;SDS011;13363;52.772;-3.890;2023-05-10T05:23:01;3.40;;;2.83;;
25435;SDS011;13363;52.772;-3.890;2023-05-10T05:25:27;11.83;;;3.27;;
25435;SDS011;13363;52.772;-3.890;2023-05-10T05:27:53;5.70;;;3.07;;
25435;SDS011;13363;52.772;-3.890;2023-05-10T05:30:19;6.03;;;2.80;;
25435;SDS011;13363;52.772;-3.890;2023-05-10T05:32:44;4.90;;;2.97;;
25435;SDS011;13363;52.772;-3.890;2023-05-10T05:35:12;5.03;;;2.70;;
25435;SDS011;13363;52.772;-3.890;2023-05-10T05:37:38;5.30;;;2.80;;
25435;SDS011;13363;52.772;-3.890;2023-05-10T05:40:04;7.80;;;3.13;;
25435;SDS011;13363;52.772;-3.890;2023-05-10T05:42:30;9.63;;;3.10;;
25435;SDS011;13363;52.772;-3.890;2023-05-10T05:44:56;6.60;;;2.67;;
25435;SDS011;13363;52.772;-3.890;2023-05-10T05:47:22;9.17;;;2.90;;
25435;SDS011;13363;52.772;-3.890;2023-05-10T05:49:48;8.40;;;3.27;;
25435;SDS011;13363;52.772;-3.890;2023-05-10T05:52:14;7.90;;;2.63;;
25435;SDS011;13363;52.772;-3.890;2023-05-10T05:54:40;6.73;;;2.50;;
25435;SDS011;13363;52.772;-3.890;2023-05-10T05:57:05;5.20;;;2.40;;
25435;SDS011;13363;52.772;-3.890;2023-05-10T05:59:32;8.87;;;2.70;;
25435;SDS011;13363;52.772;-3.890;2023-05-10T06:01:58;5.87;;;2.40;;
25435;SDS011;13363;52.772;-3.890;2023-05-10T06:04:25;6.43;;;2.40;;
25435;SDS011;13363;52.772;-3.890;2023-05-10T06:06:51;5.87;;;2.00;;
25435;SDS011;13363;52.772;-3.890;2023-05-10T06:09:17;10.93;;;2.40;;
25435;SDS011;13363;52.772;-3.890;2023-05-10T06:11:43;8.37;;;2.13;;
25435;SDS011;13363;52.772;-3.890;2023-05-10T06:14:09;6.40;;;2.03;;
25435;SDS011;13363;52.772;-3.890;2023-05-10T06:16:35;10.67;;;2.07;;
25435;SDS011;13363;52.772;-3.890;2023-05-10T06:19:02;10.63;;;2.50;;
25435;SDS011;13363;52.772;-3.890;2023-05-10T06:21:28;5.57;;;2.73;;
25435;SDS011;13363;52.772;-3.890;2023-05-10T06:23:54;3.33;;;2.20;;
25435;SDS011;13363;52.772;-3.890;2023-05-10T06:26:20;7.30;;;2.00;;
25435;SDS011;13363;52.772;-3.890;2023-05-10T06:28:46;6.70;;;1.83;;
25435;SDS011;13363;52.772;-3.890;2023-05-10T06:31:11;6.83;;;2.23;;
25435;SDS011;13363;52.772;-3.890;2023-05-10T06:33:37;15.20;;;2.13;;
25435;SDS011;13363;52.772;-3.890;2023-05-10T06:36:03;4.97;;;1.90;;
25435;SDS011;13363;52.772;-3.890;2023-05-10T06:38:29;5.27;;;1.80;;
25435;SDS011;13363;52.772;-3.890;2023-05-10T06:40:55;4.97;;;1.83;;
25435;SDS011;13363;52.772;-3.890;2023-05-10T06:43:21;7.07;;;1.73;;
25435;SDS011;13363;52.772;-3.890;2023-05-10T06:45:47;7.23;;;2.30;;
25435;SDS011;13363;52.772;-3.890;2023-05-10T06:48:13;4.77;;;1.87;;
25435;SDS011;13363;52.772;-3.890;2023-05-10T06:50:39;6.93;;;1.87;;
25435;SDS011;13363;52.772;-3.890;2023-05-10T06:53:05;8.40;;;2.70;;
25435;SDS011;13363;52.772;-3.890;2023-05-10T06:55:31;11.90;;;2.13;;
25435;SDS011;13363;52.772;-3.890;2023-05-10T06:57:56;10.13;;;2.50;;
25435;SDS011;13363;52.772;-3.890;2023-05-10T07:00:22;8.57;;;1.97;;
25435;SDS011;13363;52.772;-3.890;2023-05-10T07:02:48;8.03;;;2.30;;
25435;SDS011;13363;52.772;-3.890;2023-05-10T07:05:14;5.77;;;1.90;;
25435;SDS011;13363;52.772;-3.890;2023-05-10T07:07:40;8.10;;;2.20;;
25435;SDS011;13363;52.772;-3.890;2023-05-10T07:10:06;5.33;;;2.30;;
25435;SDS011;13363;52.772;-3.890;2023-05-10T07:12:32;2.90;;;1.07;;
25435;SDS011;13363;52.772;-3.890;2023-05-10T07:14:59;8.57;;;2.57;;
25435;SDS011;13363;52.772;-3.890;2023-05-10T07:17:24;3.83;;;2.00;;
25435;SDS011;13363;52.772;-3.890;2023-05-10T07:19:50;10.30;;;2.83;;
25435;SDS011;13363;52.772;-3.890;2023-05-10T07:22:16;4.53;;;2.20;;
25435;SDS011;13363;52.772;-3.890;2023-05-10T07:24:43;8.93;;;2.07;;
25435;SDS011;13363;52.772;-3.890;2023-05-10T07:27:08;11.77;;;2.87;;
25435;SDS011;13363;52.772;-3.890;2023-05-10T07:29:34;10.93;;;1.80;;
25435;SDS011;13363;52.772;-3.890;2023-05-10T07:32:01;4.50;;;2.40;;
25435;SDS011;13363;52.772;-3.890;2023-05-10T07:34:27;6.67;;;2.37;;
25435;SDS011;13363;52.772;-3.890;2023-05-10T07:36:55;4.60;;;2.13;;
25435;SDS011;13363;52.772;-3.890;2023-05-10T07:39:21;4.67;;;1.90;;
25435;SDS011;13363;52.772;-3.890;2023-05-10T07:41:47;8.90;;;2.80;;
25435;SDS011;13363;52.772;-3.890;2023-05-10T07:44:13;7.60;;;2.00;;
25435;SDS011;13363;52.772;-3.890;2023-05-10T07:46:39;6.07;;;1.80;;
25435;SDS011;13363;52.772;-3.890;2023-05-10T07:49:05;2.37;;;1.33;;
25435;SDS011;13363;52.772;-3.890;2023-05-10T07:51:31;8.10;;;2.53;;
25435;SDS011;13363;52.772;-3.890;2023-05-10T07:53:57;8.47;;;2.37;;
25435;SDS011;13363;52.772;-3.890;2023-05-10T07:56:31;5.50;;;2.20;;
25435;SDS011;13363;52.772;-3.890;2023-05-10T07:58:58;9.47;;;2.50;;
25435;SDS011;13363;52.772;-3.890;2023-05-10T08:01:25;6.63;;;2.40;;
25435;SDS011;13363;52.772;-3.890;2023-05-10T08:03:51;6.50;;;2.10;;
25435;SDS011;13363;52.772;-3.890;2023-05-10T08:06:19;7.47;;;2.17;;
25435;SDS011;13363;52.772;-3.890;2023-05-10T08:08:46;15.10;;;3.13;;
25435;SDS011;13363;52.772;-3.890;2023-05-10T08:11:17;6.13;;;2.17;;
25435;SDS011;13363;52.772;-3.890;2023-05-10T08:13:44;5.33;;;2.40;;
25435;SDS011;13363;52.772;-3.890;2023-05-10T08:16:10;7.80;;;2.30;;
25435;SDS011;13363;52.772;-3.890;2023-05-10T08:18:36;10.20;;;2.50;;
25435;SDS011;13363;52.772;-3.890;2023-05-10T08:21:03;4.53;;;1.83;;
25435;SDS011;13363;52.772;-3.890;2023-05-10T08:23:29;7.80;;;1.90;;
25435;SDS011;13363;52.772;-3.890;2023-05-10T08:25:55;7.67;;;2.20;;
25435;SDS011;13363;52.772;-3.890;2023-05-10T08:28:21;7.33;;;2.60;;
25435;SDS011;13363;52.772;-3.890;2023-05-10T08:30:47;4.57;;;2.20;;
25435;SDS011;13363;52.772;-3.890;2023-05-10T08:33:15;6.07;;;2.47;;
25435;SDS011;13363;52.772;-3.890;2023-05-10T08:35:41;7.07;;;2.20;;
25435;SDS011;13363;52.772;-3.890;2023-05-10T08:38:06;5.87;;;2.00;;
25435;SDS011;13363;52.772;-3.890;2023-05-10T08:40:32;6.37;;;2.43;;
25435;SDS011;13363;52.772;-3.890;2023-05-10T08:43:08;10.20;;;2.60;;
25435;SDS011;13363;52.772;-3.890;2023-05-10T08:45:39;10.63;;;2.33;;
25435;SDS011;13363;52.772;-3.890;2023-05-10T08:48:07;8.87;;;2.17;;
25435;SDS011;13363;52.772;-3.890;2023-05-10T08:50:40;10.63;;;3.23;;
25435;SDS011;13363;52.772;-3.890;2023-05-10T08:53:10;13.80;;;3.07;;
25435;SDS011;13363;52.772;-3.890;2023-05-10T08:55:37;8.17;;;2.10;;
25435;SDS011;13363;52.772;-3.890;2023-05-10T08:58:03;7.10;;;2.67;;
25435;SDS011;13363;52.772;-3.890;2023-05-10T09:00:30;8.97;;;3.17;;
25435;SDS011;13363;52.772;-3.890;2023-05-10T09:02:57;5.77;;;2.50;;
25435;SDS011;13363;52.772;-3.890;2023-05-10T09:05:24;8.13;;;2.43;;
25435;SDS011;13363;52.772;-3.890;2023-05-10T09:07:50;3.83;;;1.83;;
25435;SDS011;13363;52.772;-3.890;2023-05-10T09:10:15;9.53;;;2.17;;
25435;SDS011;13363;52.772;-3.890;2023-05-10T09:12:42;6.13;;;2.57;;
25435;SDS011;13363;52.772;-3.890;2023-05-10T09:15:10;6.03;;;2.30;;
25435;SDS011;13363;52.772;-3.890;2023-05-10T09:17:38;14.77;;;2.57;;
25435;SDS011;13363;52.772;-3.890;2023-05-10T09:20:06;12.87;;;2.70;;
25435;SDS011;13363;52.772;-3.890;2023-05-10T09:22:33;9.73;;;2.33;;
25435;SDS011;13363;52.772;-3.890;2023-05-10T09:25:07;8.57;;;2.33;;
25435;SDS011;13363;52.772;-3.890;2023-05-10T09:27:33;5.00;;;1.83;;
25435;SDS011;13363;52.772;-3.890;2023-05-10T09:30:00;5.03;;;2.10;;
25435;SDS011;13363;52.772;-3.890;2023-05-10T09:32:43;9.30;;;2.00;;
25435;SDS011;13363;52.772;-3.890;2023-05-10T09:35:13;7.90;;;2.23;;
25435;SDS011;13363;52.772;-3.890;2023-05-10T09:37:41;7.33;;;2.43;;
25435;SDS011;13363;52.772;-3.890;2023-05-10T09:40:12;6.27;;;1.80;;
25435;SDS011;13363;52.772;-3.890;2023-05-10T09:42:41;6.87;;;1.90;;
25435;SDS011;13363;52.772;-3.890;2023-05-10T09:45:15;2.00;;;0.97;;
25435;SDS011;13363;52.772;-3.890;2023-05-10T09:47:41;7.10;;;1.80;;
25435;SDS011;13363;52.772;-3.890;2023-05-10T09:50:07;3.13;;;1.80;;
25435;SDS011;13363;52.772;-3.890;2023-05-10T09:55:13;7.97;;;2.13;;
25435;SDS011;13363;52.772;-3.890;2023-05-10T09:57:39;7.43;;;1.80;;
25435;SDS011;13363;52.772;-3.890;2023-05-10T10:00:06;9.63;;;2.00;;
25435;SDS011;13363;52.772;-3.890;2023-05-10T10:02:32;8.40;;;3.13;;
25435;SDS011;13363;52.772;-3.890;2023-05-10T10:05:03;7.33;;;2.77;;
25435;SDS011;13363;52.772;-3.890;2023-05-10T10:07:34;7.57;;;2.17;;
25435;SDS011;13363;52.772;-3.890;2023-05-10T10:10:04;4.90;;;1.57;;
25435;SDS011;13363;52.772;-3.890;2023-05-10T10:12:39;7.93;;;2.40;;
25435;SDS011;13363;52.772;-3.890;2023-05-10T10:15:10;4.03;;;2.37;;
25435;SDS011;13363;52.772;-3.890;2023-05-10T10:17:40;8.10;;;2.50;;
25435;SDS011;13363;52.772;-3.890;2023-05-10T10:20:08;5.63;;;2.23;;
25435;SDS011;13363;52.772;-3.890;2023-05-10T10:22:34;5.03;;;1.90;;
25435;SDS011;13363;52.772;-3.890;2023-05-10T10:25:02;5.77;;;2.20;;
25435;SDS011;13363;52.772;-3.890;2023-05-10T10:27:47;3.63;;;1.10;;
25435;SDS011;13363;52.772;-3.890;2023-05-10T10:30:30;10.80;;;1.90;;
25435;SDS011;13363;52.772;-3.890;2023-05-10T10:33:33;11.57;;;2.70;;
25435;SDS011;13363;52.772;-3.890;2023-05-10T10:36:19;6.57;;;2.57;;
25435;SDS011;13363;52.772;-3.890;2023-05-10T10:41:26;10.60;;;2.13;;
25435;SDS011;13363;52.772;-3.890;2023-05-10T10:47:03;3.03;;;1.73;;
25435;SDS011;13363;52.772;-3.890;2023-05-10T10:52:23;3.43;;;2.03;;
25435;SDS011;13363;52.772;-3.890;2023-05-10T10:57:26;8.07;;;2.00;;
25435;SDS011;13363;52.772;-3.890;2023-05-10T11:02:44;7.73;;;1.90;;
25435;SDS011;13363;52.772;-3.890;2023-05-10T11:11:01;4.80;;;2.03;;
25435;SDS011;13363;52.772;-3.890;2023-05-10T11:13:42;7.70;;;2.00;;
25435;SDS011;13363;52.772;-3.890;2023-05-10T11:16:13;6.73;;;1.60;;
25435;SDS011;13363;52.772;-3.890;2023-05-10T11:18:39;10.47;;;2.33;;
25435;SDS011;13363;52.772;-3.890;2023-05-10T11:21:07;10.13;;;1.70;;
25435;SDS011;13363;52.772;-3.890;2023-05-10T11:26:35;6.63;;;2.10;;
25435;SDS011;13363;52.772;-3.890;2023-05-10T11:29:02;5.63;;;2.30;;
25435;SDS011;13363;52.772;-3.890;2023-05-10T11:31:29;5.77;;;1.90;;
25435;SDS011;13363;52.772;-3.890;2023-05-10T11:33:56;8.00;;;2.30;;
25435;SDS011;13363;52.772;-3.890;2023-05-10T11:36:24;9.00;;;2.27;;
25435;SDS011;13363;52.772;-3.890;2023-05-10T11:38:51;3.87;;;2.10;;
25435;SDS011;13363;52.772;-3.890;2023-05-10T11:41:18;7.40;;;2.30;;
25435;SDS011;13363;52.772;-3.890;2023-05-10T11:43:47;6.90;;;2.30;;
25435;SDS011;13363;52.772;-3.890;2023-05-10T11:46:15;3.30;;;1.53;;
25435;SDS011;13363;52.772;-3.890;2023-05-10T11:48:42;8.67;;;2.10;;
25435;SDS011;13363;52.772;-3.890;2023-05-10T11:51:08;4.90;;;1.60;;
25435;SDS011;13363;52.772;-3.890;2023-05-10T11:53:35;7.10;;;1.73;;
25435;SDS011;13363;52.772;-3.890;2023-05-10T11:56:08;6.13;;;1.50;;
25435;SDS011;13363;52.772;-3.890;2023-05-10T11:58:35;5.73;;;1.73;;
25435;SDS011;13363;52.772;-3.890;2023-05-10T12:01:03;4.97;;;1.50;;
25435;SDS011;13363;52.772;-3.890;2023-05-10T12:03:30;5.60;;;1.43;;
25435;SDS011;13363;52.772;-3.890;2023-05-10T12:05:56;3.87;;;1.70;;
25435;SDS011;13363;52.772;-3.890;2023-05-10T12:08:25;4.67;;;1.80;;
25435;SDS011;13363;52.772;-3.890;2023-05-10T12:10:53;6.73;;;1.90;;
25435;SDS011;13363;52.772;-3.890;2023-05-10T12:13:28;7.57;;;1.83;;
25435;SDS011;13363;52.772;-3.890;2023-05-10T12:15:57;7.27;;;1.97;;
25435;SDS011;13363;52.772;-3.890;2023-05-10T12:18:23;11.33;;;1.70;;
25435;SDS011;13363;52.772;-3.890;2023-05-10T12:20:52;5.27;;;2.00;;
25435;SDS011;13363;52.772;-3.890;2023-05-10T12:23:19;8.43;;;1.87;;
25435;SDS011;13363;52.772;-3.890;2023-05-10T12:25:45;10.07;;;2.13;;
25435;SDS011;13363;52.772;-3.890;2023-05-10T12:28:11;3.93;;;1.60;;
25435;SDS011;13363;52.772;-3.890;2023-05-10T12:30:38;13.40;;;2.43;;
25435;SDS011;13363;52.772;-3.890;2023-05-10T12:33:11;10.93;;;2.50;;
25435;SDS011;13363;52.772;-3.890;2023-05-10T12:35:49;7.63;;;1.93;;
25435;SDS011;13363;52.772;-3.890;2023-05-10T12:38:25;10.10;;;2.47;;
25435;SDS011;13363;52.772;-3.890;2023-05-10T12:40:54;7.40;;;1.60;;
25435;SDS011;13363;52.772;-3.890;2023-05-10T12:43:21;8.73;;;1.53;;
25435;SDS011;13363;52.772;-3.890;2023-05-10T12:45:47;6.33;;;2.07;;
25435;SDS011;13363;52.772;-3.890;2023-05-10T12:48:14;6.93;;;2.43;;
25435;SDS011;13363;52.772;-3.890;2023-05-10T12:50:40;9.33;;;2.40;;
25435;SDS011;13363;52.772;-3.890;2023-05-10T12:53:06;6.73;;;1.83;;
25435;SDS011;13363;52.772;-3.890;2023-05-10T12:55:32;9.63;;;2.03;;
25435;SDS011;13363;52.772;-3.890;2023-05-10T12:57:58;7.33;;;1.77;;
25435;SDS011;13363;52.772;-3.890;2023-05-10T13:00:23;8.43;;;1.87;;
25435;SDS011;13363;52.772;-3.890;2023-05-10T13:02:49;8.23;;;2.10;;
25435;SDS011;13363;52.772;-3.890;2023-05-10T13:05:15;3.60;;;1.27;;
25435;SDS011;13363;52.772;-3.890;2023-05-10T13:07:41;7.43;;;1.30;;
25435;SDS011;13363;52.772;-3.890;2023-05-10T13:10:08;8.57;;;2.00;;
25435;SDS011;13363;52.772;-3.890;2023-05-10T13:12:35;5.00;;;1.97;;
25435;SDS011;13363;52.772;-3.890;2023-05-10T13:15:01;8.67;;;2.10;;
25435;SDS011;13363;52.772;-3.890;2023-05-10T13:17:28;4.03;;;1.30;;
25435;SDS011;13363;52.772;-3.890;2023-05-10T13:19:54;9.77;;;1.43;;
25435;SDS011;13363;52.772;-3.890;2023-05-10T13:22:20;5.17;;;1.87;;
25435;SDS011;13363;52.772;-3.890;2023-05-10T13:24:46;8.17;;;2.60;;
25435;SDS011;13363;52.772;-3.890;2023-05-10T13:27:12;8.03;;;1.63;;
25435;SDS011;13363;52.772;-3.890;2023-05-10T13:29:38;5.93;;;1.70;;
25435;SDS011;13363;52.772;-3.890;2023-05-10T13:32:04;16.27;;;2.53;;
25435;SDS011;13363;52.772;-3.890;2023-05-10T13:34:30;5.87;;;1.63;;
25435;SDS011;13363;52.772;-3.890;2023-05-10T13:36:55;5.93;;;1.57;;
25435;SDS011;13363;52.772;-3.890;2023-05-10T13:39:22;9.30;;;1.60;;
25435;SDS011;13363;52.772;-3.890;2023-05-10T13:41:48;3.93;;;1.20;;
25435;SDS011;13363;52.772;-3.890;2023-05-10T13:44:14;6.20;;;1.23;;
25435;SDS011;13363;52.772;-3.890;2023-05-10T13:46:40;4.00;;;1.37;;
25435;SDS011;13363;52.772;-3.890;2023-05-10T13:49:08;7.73;;;1.70;;
25435;SDS011;13363;52.772;-3.890;2023-05-10T13:51:34;4.63;;;1.33;;
25435;SDS011;13363;52.772;-3.890;2023-05-10T13:54:01;1.27;;;0.97;;
25435;SDS011;13363;52.772;-3.890;2023-05-10T13:56:27;4.97;;;1.83;;
25435;SDS011;13363;52.772;-3.890;2023-05-10T13:58:53;6.93;;;1.43;;
25435;SDS011;13363;52.772;-3.890;2023-05-10T14:01:19;5.53;;;1.57;;
25435;SDS011;13363;52.772;-3.890;2023-05-10T14:03:45;6.17;;;1.57;;
25435;SDS011;13363;52.772;-3.890;2023-05-10T14:06:11;4.80;;;1.93;;
25435;SDS011;13363;52.772;-3.890;2023-05-10T14:08:36;3.67;;;1.93;;
25435;SDS011;13363;52.772;-3.890;2023-05-10T14:11:02;3.43;;;1.40;;
25435;SDS011;13363;52.772;-3.890;2023-05-10T14:13:28;5.53;;;1.80;;
25435;SDS011;13363;52.772;-3.890;2023-05-10T14:15:54;5.83;;;1.70;;
25435;SDS011;13363;52.772;-3.890;2023-05-10T14:18:20;8.43;;;1.93;;
25435;SDS011;13363;52.772;-3.890;2023-05-10T14:20:46;4.87;;;1.90;;
25435;SDS011;13363;52.772;-3.890;2023-05-10T14:23:12;5.50;;;2.10;;
25435;SDS011;13363;52.772;-3.890;2023-05-10T14:25:39;3.60;;;1.23;;
25435;SDS011;13363;52.772;-3.890;2023-05-10T14:28:05;5.30;;;1.33;;
25435;SDS011;13363;52.772;-3.890;2023-05-10T14:30:31;7.03;;;1.23;;
25435;SDS011;13363;52.772;-3.890;2023-05-10T14:33:01;7.23;;;1.77;;
25435;SDS011;13363;52.772;-3.890;2023-05-10T14:35:30;3.40;;;1.37;;
25435;SDS011;13363;52.772;-3.890;2023-05-10T14:37:56;4.00;;;1.80;;
25435;SDS011;13363;52.772;-3.890;2023-05-10T14:40:22;2.80;;;1.07;;
25435;SDS011;13363;52.772;-3.890;2023-05-10T14:42:49;7.57;;;2.27;;
25435;SDS011;13363;52.772;-3.890;2023-05-10T14:45:15;5.10;;;1.83;;
25435;SDS011;13363;52.772;-3.890;2023-05-10T14:47:41;7.80;;;2.30;;
25435;SDS011;13363;52.772;-3.890;2023-05-10T14:50:07;6.83;;;1.67;;
25435;SDS011;13363;52.772;-3.890;2023-05-10T14:52:33;9.37;;;2.00;;
25435;SDS011;13363;52.772;-3.890;2023-05-10T14:54:59;5.13;;;1.47;;
25435;SDS011;13363;52.772;-3.890;2023-05-10T14:57:26;4.13;;;1.80;;
25435;SDS011;13363;52.772;-3.890;2023-05-10T14:59:55;9.07;;;2.20;;
25435;SDS011;13363;52.772;-3.890;2023-05-10T15:02:24;13.40;;;2.13;;
25435;SDS011;13363;52.772;-3.890;2023-05-10T15:04:51;8.47;;;1.87;;
25435;SDS011;13363;52.772;-3.890;2023-05-10T15:07:23;5.90;;;2.00;;
25435;SDS011;13363;52.772;-3.890;2023-05-10T15:09:52;7.80;;;2.07;;
25435;SDS011;13363;52.772;-3.890;2023-05-10T15:12:20;7.00;;;1.90;;
25435;SDS011;13363;52.772;-3.890;2023-05-10T15:14:47;6.10;;;1.70;;
25435;SDS011;13363;52.772;-3.890;2023-05-10T15:17:17;4.53;;;2.10;;
25435;SDS011;13363;52.772;-3.890;2023-05-10T15:19:43;5.40;;;1.80;;
25435;SDS011;13363;52.772;-3.890;2023-05-10T15:22:09;4.20;;;1.90;;
25435;SDS011;13363;52.772;-3.890;2023-05-10T15:24:35;7.80;;;2.00;;